createdAt,value
2023-08-14T00:01:54.865Z,3.50
2023-08-14T00:04:40.990Z,3.30
2023-08-14T00:07:27.224Z,3.70
2023-08-14T00:10:13.551Z,3.30
2023-08-14T00:13:00.028Z,3.10
2023-08-14T00:15:46.023Z,3.20
2023-08-14T00:18:32.429Z,3.50
2023-08-14T00:21:18.576Z,3.30
2023-08-14T00:24:05.013Z,2.80
2023-08-14T00:26:51.180Z,3.40
2023-08-14T00:29:37.345Z,3.50
2023-08-14T00:32:23.609Z,3.30
2023-08-14T00:35:10.006Z,3.30
2023-08-14T00:37:56.249Z,3.30
2023-08-14T00:40:43.404Z,3.80
2023-08-14T00:43:29.654Z,3.20
2023-08-14T00:46:16.127Z,3.20
2023-08-14T00:49:02.915Z,3.30
2023-08-14T00:51:49.700Z,3.60
2023-08-14T00:54:35.870Z,3.20
2023-08-14T00:57:21.893Z,3.30
2023-08-14T01:00:10.169Z,3.40
2023-08-14T01:02:56.823Z,3.80
2023-08-14T01:05:43.287Z,3.20
2023-08-14T01:08:30.358Z,2.90
2023-08-14T01:11:30.605Z,3.60
2023-08-14T01:14:32.291Z,3.20
2023-08-14T01:17:22.583Z,3.50
2023-08-14T01:20:10.877Z,4.00
2023-08-14T01:23:18.007Z,3.30
2023-08-14T01:26:04.609Z,3.50
2023-08-14T01:28:51.751Z,3.10
2023-08-14T01:31:37.914Z,3.40
2023-08-14T01:34:24.846Z,3.70
2023-08-14T01:37:17.423Z,3.20
2023-08-14T01:40:17.893Z,3.90
2023-08-14T01:43:10.602Z,3.40
2023-08-14T01:45:58.888Z,3.40
2023-08-14T01:48:48.490Z,4.00
2023-08-14T01:51:34.877Z,3.10
2023-08-14T01:54:21.083Z,2.90
2023-08-14T01:57:08.602Z,3.20
2023-08-14T01:59:55.188Z,3.40
2023-08-14T02:02:41.280Z,2.90
2023-08-14T02:05:27.484Z,3.60
2023-08-14T02:08:13.709Z,3.20
2023-08-14T02:11:09.894Z,2.90
2023-08-14T02:13:56.855Z,3.20
2023-08-14T02:16:43.148Z,3.10
2023-08-14T02:19:29.252Z,3.80
2023-08-14T02:22:15.930Z,2.90
2023-08-14T02:25:02.965Z,3.40
2023-08-14T02:27:49.370Z,3.40
2023-08-14T02:30:37.772Z,3.10
2023-08-14T02:33:24.875Z,3.70
2023-08-14T02:36:10.722Z,3.50
2023-08-14T02:38:56.965Z,3.40
2023-08-14T02:41:43.460Z,3.90
2023-08-14T02:44:30.669Z,3.10
2023-08-14T02:47:18.219Z,2.80
2023-08-14T02:50:04.814Z,3.20
2023-08-14T02:52:51.255Z,3.40
2023-08-14T02:55:37.432Z,3.00
2023-08-14T02:58:23.932Z,2.80
2023-08-14T03:01:10.345Z,2.60
2023-08-14T03:03:56.860Z,2.70
2023-08-14T03:06:42.918Z,3.10
2023-08-14T03:09:29.205Z,3.30
2023-08-14T03:12:16.023Z,3.40
2023-08-14T03:15:02.945Z,2.70
2023-08-14T03:17:49.110Z,3.00
2023-08-14T03:20:35.418Z,3.00
2023-08-14T03:23:21.609Z,3.20
2023-08-14T03:26:07.591Z,2.80
2023-08-14T03:28:53.706Z,2.90
2023-08-14T03:31:40.240Z,2.70
2023-08-14T03:34:26.833Z,2.80
2023-08-14T03:37:14.533Z,2.50
2023-08-14T03:40:00.749Z,2.80
2023-08-14T03:42:48.660Z,2.70
2023-08-14T03:45:34.988Z,2.80
2023-08-14T03:48:20.919Z,2.80
2023-08-14T03:51:07.255Z,2.80
2023-08-14T03:53:53.402Z,2.50
2023-08-14T03:56:40.166Z,2.70
2023-08-14T03:59:27.295Z,2.70
2023-08-14T04:02:14.557Z,2.60
2023-08-14T04:05:02.362Z,2.30
2023-08-14T04:07:49.177Z,3.30
2023-08-14T04:10:37.502Z,2.60
2023-08-14T04:13:26.997Z,2.60
2023-08-14T04:16:13.603Z,2.60
2023-08-14T04:19:00.018Z,2.60
2023-08-14T04:21:46.924Z,2.60
2023-08-14T04:24:32.970Z,2.90
2023-08-14T04:27:19.729Z,2.70
2023-08-14T04:30:06.694Z,2.70
2023-08-14T04:32:53.185Z,2.90
2023-08-14T04:35:41.495Z,2.40
2023-08-14T04:38:28.043Z,2.40
2023-08-14T04:41:14.441Z,2.60
2023-08-14T04:44:00.862Z,2.70
2023-08-14T04:46:58.128Z,2.80
2023-08-14T04:49:47.615Z,3.20
2023-08-14T04:52:33.699Z,3.10
2023-08-14T04:55:20.025Z,2.90
2023-08-14T04:58:06.625Z,2.60
2023-08-14T05:00:54.518Z,2.60
2023-08-14T05:03:41.219Z,2.90
2023-08-14T05:06:27.378Z,2.80
2023-08-14T05:09:25.685Z,2.80
2023-08-14T05:12:13.463Z,2.70
2023-08-14T05:14:59.727Z,2.70
2023-08-14T05:17:47.043Z,2.40
2023-08-14T05:20:35.222Z,2.20
2023-08-14T05:23:21.968Z,2.50
2023-08-14T05:26:08.213Z,2.70
2023-08-14T05:28:54.403Z,2.80
2023-08-14T05:31:40.842Z,2.50
2023-08-14T05:34:27.284Z,2.40
2023-08-14T05:37:13.258Z,2.30
2023-08-14T05:39:59.518Z,2.60
2023-08-14T05:43:13.774Z,2.80
2023-08-14T05:46:00.099Z,2.40
2023-08-14T05:48:46.688Z,2.10
2023-08-14T05:51:33.202Z,2.50
2023-08-14T05:54:21.430Z,2.20
2023-08-14T05:57:07.631Z,2.20
2023-08-14T05:59:56.729Z,2.50
2023-08-14T06:02:42.638Z,2.10
2023-08-14T06:05:29.180Z,2.50
2023-08-14T06:08:15.738Z,2.10
2023-08-14T06:11:03.566Z,2.10
2023-08-14T06:13:49.704Z,2.20
2023-08-14T06:16:36.194Z,1.90
2023-08-14T06:19:22.749Z,2.10
2023-08-14T06:22:09.163Z,2.00
2023-08-14T06:24:55.878Z,2.00
2023-08-14T06:27:42.346Z,2.20
2023-08-14T06:30:30.516Z,1.80
2023-08-14T06:33:16.904Z,2.00
2023-08-14T06:36:03.503Z,2.20
2023-08-14T06:38:50.102Z,2.00
2023-08-14T06:41:37.220Z,1.90
2023-08-14T06:44:24.370Z,2.10
2023-08-14T06:47:10.745Z,1.80
2023-08-14T06:49:56.752Z,1.50
2023-08-14T06:52:42.735Z,1.80
2023-08-14T06:55:28.924Z,1.80
2023-08-14T06:58:15.557Z,2.00
2023-08-14T07:01:01.714Z,1.90
2023-08-14T07:03:48.511Z,1.80
2023-08-14T07:06:35.143Z,1.90
2023-08-14T07:09:21.696Z,1.60
2023-08-14T07:12:07.928Z,1.60
2023-08-14T07:14:54.320Z,1.70
2023-08-14T07:17:40.679Z,1.50
2023-08-14T07:20:27.337Z,1.60
2023-08-14T07:23:16.714Z,1.60
2023-08-14T07:26:12.025Z,1.60
2023-08-14T07:28:58.147Z,1.50
2023-08-14T07:31:44.335Z,1.30
2023-08-14T07:34:30.710Z,1.50
2023-08-14T07:37:17.114Z,1.80
2023-08-14T07:40:07.000Z,1.60
2023-08-14T07:42:53.250Z,1.60
2023-08-14T07:45:39.340Z,1.50
2023-08-14T07:48:25.741Z,1.60
2023-08-14T07:51:11.840Z,1.50
2023-08-14T07:53:57.886Z,1.40
2023-08-14T07:56:46.538Z,1.40
2023-08-14T07:59:33.756Z,1.60
2023-08-14T08:02:20.604Z,1.60
2023-08-14T08:05:08.076Z,1.40
2023-08-14T08:07:54.362Z,1.50
2023-08-14T08:10:40.667Z,1.60
2023-08-14T08:13:27.822Z,1.50
2023-08-14T08:16:13.892Z,1.50
2023-08-14T08:19:00.388Z,2.00
2023-08-14T08:21:47.799Z,1.60
2023-08-14T08:24:33.983Z,1.50
2023-08-14T08:27:20.151Z,1.60
2023-08-14T08:30:07.112Z,1.70
2023-08-14T08:32:53.281Z,1.70
2023-08-14T08:35:39.787Z,1.80
2023-08-14T08:38:26.116Z,1.70
2023-08-14T08:41:31.618Z,1.50
2023-08-14T08:44:26.897Z,1.60
2023-08-14T08:47:16.120Z,1.50
2023-08-14T08:50:04.154Z,1.50
2023-08-14T08:52:52.149Z,1.70
2023-08-14T08:55:38.552Z,1.80
2023-08-14T08:58:26.383Z,1.90
2023-08-14T09:01:13.822Z,1.60
2023-08-14T09:04:04.358Z,1.70
2023-08-14T09:06:50.696Z,1.90
2023-08-14T09:09:37.068Z,1.70
2023-08-14T09:12:23.428Z,1.60
2023-08-14T09:15:10.400Z,1.60
2023-08-14T09:17:56.486Z,1.60
2023-08-14T09:20:43.024Z,1.50
2023-08-14T09:23:33.126Z,1.60
2023-08-14T09:26:20.506Z,1.60
2023-08-14T09:29:06.640Z,1.50
2023-08-14T09:31:53.094Z,1.50
2023-08-14T09:34:39.489Z,1.40
2023-08-14T09:37:26.325Z,1.70
2023-08-14T09:40:16.239Z,1.90
2023-08-14T09:43:02.732Z,1.70
2023-08-14T09:45:49.109Z,1.60
2023-08-14T09:48:48.045Z,1.60
2023-08-14T09:51:34.746Z,1.70
2023-08-14T09:54:32.323Z,1.50
2023-08-14T09:57:22.263Z,1.60
2023-08-14T10:00:12.960Z,1.80
2023-08-14T10:03:03.726Z,1.80
2023-08-14T10:05:50.935Z,1.80
2023-08-14T10:08:39.208Z,1.60
2023-08-14T10:11:28.274Z,1.70
2023-08-14T10:14:18.264Z,1.60
2023-08-14T10:17:10.107Z,1.60
2023-08-14T10:19:59.793Z,1.50
2023-08-14T10:22:47.000Z,1.70
2023-08-14T10:25:38.837Z,1.70
2023-08-14T10:28:25.727Z,1.60
2023-08-14T10:31:13.138Z,1.40
2023-08-14T10:34:00.442Z,1.40
2023-08-14T10:36:52.837Z,1.40
2023-08-14T10:39:39.224Z,1.60
2023-08-14T10:42:25.788Z,1.70
2023-08-14T10:45:16.308Z,1.50
2023-08-14T10:48:09.785Z,1.80
2023-08-14T10:51:00.375Z,1.40
2023-08-14T10:53:46.774Z,1.80
2023-08-14T10:56:52.487Z,1.60
2023-08-14T10:59:41.531Z,1.70
2023-08-14T11:02:29.972Z,1.80
2023-08-14T11:05:17.271Z,1.90
2023-08-14T11:08:06.471Z,1.90
2023-08-14T11:10:53.026Z,1.70
2023-08-14T11:13:39.471Z,1.80
2023-08-14T11:16:25.876Z,1.70
2023-08-14T11:19:13.435Z,1.90
2023-08-14T11:21:59.787Z,1.70
2023-08-14T11:24:47.227Z,1.60
2023-08-14T11:27:33.749Z,1.80
2023-08-14T11:30:26.223Z,1.40
2023-08-14T11:33:12.956Z,1.50
2023-08-14T11:36:04.161Z,1.70
2023-08-14T11:38:57.954Z,1.80
2023-08-14T11:41:44.108Z,1.70
2023-08-14T11:44:30.317Z,1.70
2023-08-14T11:47:17.864Z,1.80
2023-08-14T11:50:05.222Z,1.90
2023-08-14T11:52:52.179Z,1.80
2023-08-14T11:55:38.710Z,1.90
2023-08-14T11:58:24.825Z,1.90
2023-08-14T12:01:11.291Z,1.80
2023-08-14T12:03:57.824Z,2.10
2023-08-14T12:06:44.327Z,1.90
2023-08-14T12:09:31.222Z,2.10
2023-08-14T12:12:18.756Z,2.20
2023-08-14T12:15:06.305Z,1.90
2023-08-14T12:17:53.567Z,2.00
2023-08-14T12:20:40.068Z,2.00
2023-08-14T12:23:26.425Z,2.00
2023-08-14T12:26:12.983Z,2.10
2023-08-14T12:28:59.410Z,2.00
2023-08-14T12:31:47.547Z,2.20
2023-08-14T12:34:34.190Z,2.00
2023-08-14T12:37:21.373Z,2.10
2023-08-14T12:40:09.827Z,2.10
2023-08-14T12:42:56.120Z,2.10
2023-08-14T12:45:42.847Z,1.90
2023-08-14T12:48:29.724Z,2.30
2023-08-14T12:51:15.737Z,2.20
2023-08-14T12:54:02.461Z,2.10
2023-08-14T12:56:48.832Z,1.90
2023-08-14T12:59:34.776Z,2.00
2023-08-14T13:05:10.482Z,2.10
2023-08-14T13:07:56.721Z,2.30
2023-08-14T13:10:42.880Z,2.00
2023-08-14T13:13:30.055Z,2.30
2023-08-14T13:16:17.336Z,2.60
2023-08-14T13:19:03.793Z,2.10
2023-08-14T13:21:50.055Z,2.10
2023-08-14T13:24:35.928Z,2.20
2023-08-14T13:27:22.641Z,2.30
2023-08-14T13:30:13.302Z,2.10
2023-08-14T13:33:06.159Z,2.30
2023-08-14T13:35:52.866Z,2.20
2023-08-14T13:38:39.725Z,2.10
2023-08-14T13:41:26.649Z,2.40
2023-08-14T13:44:13.338Z,2.30
2023-08-14T13:47:02.438Z,2.20
2023-08-14T13:49:49.947Z,2.20
2023-08-14T13:52:36.057Z,2.30
2023-08-14T13:55:22.376Z,2.60
2023-08-14T13:58:11.421Z,2.30
2023-08-14T14:00:58.004Z,2.30
2023-08-14T14:03:44.361Z,2.40
2023-08-14T14:06:30.399Z,1.90
2023-08-14T14:09:17.055Z,2.10
2023-08-14T14:12:03.888Z,2.40
2023-08-14T14:14:50.075Z,2.00
2023-08-14T14:17:36.512Z,2.20
2023-08-14T14:20:24.235Z,2.10
2023-08-14T14:23:11.077Z,2.10
2023-08-14T14:25:57.505Z,2.20
2023-08-14T14:28:43.816Z,2.10
2023-08-14T14:31:32.414Z,2.10
2023-08-14T14:34:19.466Z,2.10
2023-08-14T14:37:05.989Z,2.30
2023-08-14T14:39:52.738Z,1.90
2023-08-14T14:42:39.237Z,2.50
2023-08-14T14:45:34.542Z,1.90
2023-08-14T14:48:21.762Z,1.80
2023-08-14T14:51:08.129Z,2.00
2023-08-14T14:53:54.822Z,1.90
2023-08-14T14:56:41.051Z,11.60
2023-08-14T14:59:27.231Z,4.10
2023-08-14T15:02:27.618Z,8.40
2023-08-14T15:05:27.813Z,2.50
2023-08-14T15:08:15.329Z,2.40
2023-08-14T15:11:01.761Z,2.10
2023-08-14T15:13:47.853Z,2.60
2023-08-14T15:16:33.869Z,3.50
2023-08-14T15:19:20.366Z,2.70
2023-08-14T15:22:07.177Z,2.30
2023-08-14T15:25:00.026Z,7.40
2023-08-14T15:27:46.013Z,4.90
2023-08-14T15:30:36.052Z,3.20
2023-08-14T15:33:22.449Z,4.10
2023-08-14T15:36:08.688Z,3.10
2023-08-14T15:38:55.846Z,2.60
2023-08-14T15:41:42.609Z,2.20
2023-08-14T15:44:28.900Z,2.60
2023-08-14T15:47:15.234Z,2.70
2023-08-14T15:50:01.940Z,2.30
2023-08-14T15:52:48.785Z,2.60
2023-08-14T15:55:34.926Z,3.00
2023-08-14T15:58:21.194Z,3.10
2023-08-14T16:01:07.372Z,2.80
2023-08-14T16:03:53.690Z,2.60
2023-08-14T16:06:40.181Z,3.50
2023-08-14T16:09:26.356Z,2.30
2023-08-14T16:12:13.592Z,3.70
2023-08-14T16:15:00.686Z,2.50
2023-08-14T16:17:47.652Z,2.90
2023-08-14T16:20:34.143Z,2.10
2023-08-14T16:23:20.625Z,3.20
2023-08-14T16:26:07.160Z,5.80
2023-08-14T16:28:53.251Z,3.00
2023-08-14T16:31:39.483Z,3.90
2023-08-14T16:34:26.268Z,4.30
2023-08-14T16:37:12.978Z,3.50
2023-08-14T16:39:59.547Z,3.00
2023-08-14T16:42:46.350Z,2.70
2023-08-14T16:45:32.998Z,2.30
2023-08-14T16:48:19.592Z,3.80
2023-08-14T16:51:05.962Z,2.40
2023-08-14T16:53:52.724Z,3.20
2023-08-14T16:56:39.293Z,2.30
2023-08-14T16:59:25.833Z,2.50
2023-08-14T17:02:12.406Z,2.30
2023-08-14T17:04:59.954Z,3.50
2023-08-14T17:07:46.233Z,2.90
2023-08-14T17:10:37.045Z,2.50
2023-08-14T17:13:23.197Z,2.60
2023-08-14T17:16:11.480Z,2.60
2023-08-14T17:18:57.457Z,2.40
2023-08-14T17:21:45.941Z,2.60
2023-08-14T17:24:33.222Z,2.40
2023-08-14T17:27:19.731Z,3.00
2023-08-14T17:30:07.495Z,2.70
2023-08-14T17:32:56.151Z,3.30
2023-08-14T17:35:46.418Z,8.10
2023-08-14T17:38:33.819Z,9.40
2023-08-14T17:41:20.196Z,7.90
2023-08-14T17:44:06.706Z,4.90
2023-08-14T17:46:52.775Z,3.60
2023-08-14T17:49:38.829Z,3.30
2023-08-14T17:52:26.098Z,3.70
2023-08-14T17:55:12.279Z,3.40
2023-08-14T17:57:58.679Z,2.80
2023-08-14T18:00:50.271Z,3.20
2023-08-14T18:03:37.012Z,3.00
2023-08-14T18:06:24.586Z,3.60
2023-08-14T18:09:10.891Z,3.60
2023-08-14T18:11:57.167Z,3.20
2023-08-14T18:14:43.614Z,2.90
2023-08-14T18:17:30.066Z,3.90
2023-08-14T18:20:16.421Z,4.40
2023-08-14T18:23:02.762Z,5.20
2023-08-14T18:25:54.011Z,5.20
2023-08-14T18:28:40.597Z,5.40
2023-08-14T18:31:27.075Z,4.40
2023-08-14T18:34:13.446Z,4.50
2023-08-14T18:36:59.663Z,4.50
2023-08-14T18:39:45.722Z,4.30
2023-08-14T18:42:31.897Z,3.40
2023-08-14T18:45:18.092Z,3.80
2023-08-14T18:48:05.222Z,3.30
2023-08-14T18:50:51.641Z,3.40
2023-08-14T18:53:38.427Z,3.30
2023-08-14T18:56:24.830Z,3.50
2023-08-14T18:59:12.467Z,3.60
2023-08-14T19:01:58.808Z,3.40
2023-08-14T19:04:45.319Z,3.50
2023-08-14T19:07:31.704Z,3.60
2023-08-14T19:10:18.176Z,3.30
2023-08-14T19:13:04.432Z,3.50
2023-08-14T19:15:50.704Z,3.50
2023-08-14T19:18:37.121Z,2.90
2023-08-14T19:21:23.782Z,3.50
2023-08-14T19:24:10.114Z,4.20
2023-08-14T19:26:56.358Z,3.50
2023-08-14T19:29:42.486Z,3.40
2023-08-14T19:32:28.894Z,3.90
2023-08-14T19:35:15.483Z,4.80
2023-08-14T19:38:01.679Z,4.30
2023-08-14T19:40:47.977Z,4.00
2023-08-14T19:43:33.850Z,3.70
2023-08-14T19:46:20.193Z,3.70
2023-08-14T19:49:06.354Z,4.50
2023-08-14T19:51:52.228Z,3.90
2023-08-14T19:54:38.198Z,4.20
2023-08-14T19:57:24.458Z,4.40
2023-08-14T20:00:11.421Z,4.50
2023-08-14T20:02:57.846Z,3.60
2023-08-14T20:05:49.779Z,3.90
2023-08-14T20:08:38.393Z,4.90
2023-08-14T20:11:24.674Z,4.30
2023-08-14T20:14:13.025Z,4.40
2023-08-14T20:16:59.342Z,4.40
2023-08-14T20:19:45.384Z,3.90
2023-08-14T20:22:31.368Z,4.10
2023-08-14T20:25:18.964Z,4.10
2023-08-14T20:28:06.600Z,3.70
2023-08-14T20:30:54.184Z,3.80
2023-08-14T20:33:40.699Z,4.10
2023-08-14T20:36:32.564Z,3.80
2023-08-14T20:39:18.950Z,3.60
2023-08-14T20:42:06.665Z,3.60
2023-08-14T20:44:53.446Z,3.70
2023-08-14T20:47:40.077Z,3.70
2023-08-14T20:50:26.718Z,3.70
2023-08-14T20:53:15.378Z,3.70
2023-08-14T20:56:03.424Z,3.90
2023-08-14T20:58:49.867Z,3.90
2023-08-14T21:01:36.217Z,3.90
2023-08-14T21:04:22.953Z,4.00
2023-08-14T21:07:09.737Z,9.90
2023-08-14T21:09:56.208Z,8.40
2023-08-14T21:12:42.669Z,4.50
2023-08-14T21:15:29.498Z,4.00
2023-08-14T21:18:16.266Z,3.80
2023-08-14T21:21:03.079Z,3.70
2023-08-14T21:23:49.841Z,4.10
2023-08-14T21:26:36.959Z,4.10
2023-08-14T21:29:23.349Z,4.10
2023-08-14T21:32:09.607Z,3.80
2023-08-14T21:34:56.085Z,4.20
2023-08-14T21:37:42.385Z,4.40
2023-08-14T21:40:28.561Z,3.90
2023-08-14T21:43:14.841Z,4.10
2023-08-14T21:46:02.360Z,3.60
2023-08-14T21:48:48.903Z,4.30
2023-08-14T21:51:35.010Z,3.90
2023-08-14T21:54:21.567Z,3.90
2023-08-14T21:57:07.638Z,4.00
2023-08-14T21:59:53.857Z,3.50
2023-08-14T22:02:40.241Z,3.90
2023-08-14T22:05:26.487Z,3.70
2023-08-14T22:08:12.887Z,3.80
2023-08-14T22:11:01.445Z,3.70
2023-08-14T22:13:47.455Z,4.30
2023-08-14T22:16:33.622Z,3.50
2023-08-14T22:19:19.928Z,3.90
2023-08-14T22:22:05.729Z,3.70
2023-08-14T22:24:52.184Z,3.80
2023-08-14T22:27:40.815Z,3.90
2023-08-14T22:30:26.994Z,3.80
2023-08-14T22:33:13.306Z,3.90
2023-08-14T22:35:59.999Z,3.90
2023-08-14T22:38:46.440Z,3.80
2023-08-14T22:41:32.834Z,4.10
2023-08-14T22:44:19.124Z,4.10
2023-08-14T22:47:05.152Z,3.90
2023-08-14T22:49:51.605Z,3.90
2023-08-14T22:52:37.781Z,6.30
2023-08-14T22:55:24.042Z,6.70
2023-08-14T22:58:10.658Z,12.20
2023-08-14T23:00:57.217Z,6.30
2023-08-14T23:03:43.380Z,4.50
2023-08-14T23:06:29.870Z,4.00
2023-08-14T23:09:15.913Z,3.60
2023-08-14T23:12:02.168Z,4.30
2023-08-14T23:14:48.709Z,4.20
2023-08-14T23:17:35.192Z,3.60
2023-08-14T23:20:21.530Z,4.10
2023-08-14T23:23:07.826Z,4.10
2023-08-14T23:25:53.968Z,4.10
2023-08-14T23:28:40.568Z,4.10
2023-08-14T23:31:26.686Z,4.20
2023-08-14T23:34:12.644Z,4.50
2023-08-14T23:36:58.767Z,5.10
2023-08-14T23:39:45.336Z,4.70
2023-08-14T23:42:31.719Z,5.00
2023-08-14T23:45:18.426Z,4.80
2023-08-14T23:48:08.278Z,5.30
2023-08-14T23:50:54.751Z,6.70
2023-08-14T23:53:41.158Z,5.40
2023-08-14T23:56:27.445Z,6.20
2023-08-14T23:59:13.643Z,5.70
